sensor_id;sensor_type;location;lat;lon;timestamp;P1;durP1;ratioP1;P2;durP2;ratioP2
57385;SDS011;71829;56.976;21.958;2023-09-19T00:01:55;8.05;;;3.13;;
57385;SDS011;71829;56.976;21.958;2023-09-19T00:04:23;8.50;;;4.05;;
57385;SDS011;71829;56.976;21.958;2023-09-19T00:06:55;7.95;;;2.85;;
57385;SDS011;71829;56.976;21.958;2023-09-19T00:09:23;10.15;;;3.45;;
57385;SDS011;71829;56.976;21.958;2023-09-19T00:11:54;7.28;;;2.72;;
57385;SDS011;71829;56.976;21.958;2023-09-19T00:14:24;7.75;;;3.15;;
57385;SDS011;71829;56.976;21.958;2023-09-19T00:16:51;6.85;;;2.45;;
57385;SDS011;71829;56.976;21.958;2023-09-19T00:19:21;7.95;;;3.83;;
57385;SDS011;71829;56.976;21.958;2023-09-19T00:21:49;8.50;;;3.33;;
57385;SDS011;71829;56.976;21.958;2023-09-19T00:24:17;8.52;;;3.47;;
57385;SDS011;71829;56.976;21.958;2023-09-19T00:26:45;7.85;;;3.42;;
57385;SDS011;71829;56.976;21.958;2023-09-19T00:29:13;8.75;;;3.42;;
57385;SDS011;71829;56.976;21.958;2023-09-19T00:31:43;10.13;;;3.72;;
57385;SDS011;71829;56.976;21.958;2023-09-19T00:34:10;7.32;;;2.97;;
57385;SDS011;71829;56.976;21.958;2023-09-19T00:36:38;9.90;;;2.92;;
57385;SDS011;71829;56.976;21.958;2023-09-19T00:39:06;8.93;;;3.10;;
57385;SDS011;71829;56.976;21.958;2023-09-19T00:41:41;8.80;;;3.80;;
57385;SDS011;71829;56.976;21.958;2023-09-19T00:44:11;7.57;;;3.85;;
57385;SDS011;71829;56.976;21.958;2023-09-19T00:46:38;10.05;;;2.97;;
57385;SDS011;71829;56.976;21.958;2023-09-19T00:49:07;8.88;;;4.13;;
57385;SDS011;71829;56.976;21.958;2023-09-19T00:51:36;8.63;;;3.63;;
57385;SDS011;71829;56.976;21.958;2023-09-19T00:54:03;10.00;;;3.88;;
57385;SDS011;71829;56.976;21.958;2023-09-19T00:56:31;10.60;;;3.60;;
57385;SDS011;71829;56.976;21.958;2023-09-19T00:59:00;10.13;;;3.78;;
57385;SDS011;71829;56.976;21.958;2023-09-19T01:01:27;11.25;;;3.97;;
57385;SDS011;71829;56.976;21.958;2023-09-19T01:03:55;8.00;;;3.53;;
57385;SDS011;71829;56.976;21.958;2023-09-19T01:06:23;8.68;;;3.88;;
57385;SDS011;71829;56.976;21.958;2023-09-19T01:08:51;9.45;;;4.25;;
57385;SDS011;71829;56.976;21.958;2023-09-19T01:11:36;9.05;;;3.97;;
57385;SDS011;71829;56.976;21.958;2023-09-19T01:16:40;8.73;;;3.42;;
57385;SDS011;71829;56.976;21.958;2023-09-19T01:29:39;8.30;;;3.15;;
57385;SDS011;71829;56.976;21.958;2023-09-19T01:32:11;9.13;;;3.55;;
57385;SDS011;71829;56.976;21.958;2023-09-19T01:34:44;7.95;;;3.28;;
57385;SDS011;71829;56.976;21.958;2023-09-19T01:37:16;9.05;;;4.18;;
57385;SDS011;71829;56.976;21.958;2023-09-19T01:39:47;11.38;;;4.57;;
57385;SDS011;71829;56.976;21.958;2023-09-19T01:42:19;8.93;;;4.20;;
57385;SDS011;71829;56.976;21.958;2023-09-19T01:49:59;10.48;;;4.65;;
57385;SDS011;71829;56.976;21.958;2023-09-19T01:52:30;9.07;;;4.07;;
57385;SDS011;71829;56.976;21.958;2023-09-19T01:55:04;9.43;;;4.13;;
57385;SDS011;71829;56.976;21.958;2023-09-19T01:57:34;8.23;;;4.28;;
57385;SDS011;71829;56.976;21.958;2023-09-19T02:00:07;9.30;;;4.43;;
57385;SDS011;71829;56.976;21.958;2023-09-19T02:02:39;9.32;;;3.90;;
57385;SDS011;71829;56.976;21.958;2023-09-19T02:05:07;11.07;;;4.70;;
57385;SDS011;71829;56.976;21.958;2023-09-19T02:07:35;11.25;;;4.65;;
57385;SDS011;71829;56.976;21.958;2023-09-19T02:10:05;10.20;;;4.85;;
57385;SDS011;71829;56.976;21.958;2023-09-19T02:12:32;10.60;;;4.53;;
57385;SDS011;71829;56.976;21.958;2023-09-19T02:15:02;10.85;;;5.38;;
57385;SDS011;71829;56.976;21.958;2023-09-19T02:17:30;10.45;;;4.28;;
57385;SDS011;71829;56.976;21.958;2023-09-19T02:19:57;9.55;;;4.45;;
57385;SDS011;71829;56.976;21.958;2023-09-19T02:22:28;9.85;;;4.28;;
57385;SDS011;71829;56.976;21.958;2023-09-19T02:24:56;9.50;;;4.45;;
57385;SDS011;71829;56.976;21.958;2023-09-19T02:27:27;9.70;;;4.80;;
57385;SDS011;71829;56.976;21.958;2023-09-19T02:29:54;10.45;;;4.90;;
57385;SDS011;71829;56.976;21.958;2023-09-19T02:32:23;11.68;;;4.32;;
57385;SDS011;71829;56.976;21.958;2023-09-19T02:34:51;10.10;;;4.65;;
57385;SDS011;71829;56.976;21.958;2023-09-19T02:37:18;9.82;;;4.50;;
57385;SDS011;71829;56.976;21.958;2023-09-19T02:42:16;10.38;;;4.88;;
57385;SDS011;71829;56.976;21.958;2023-09-19T02:44:44;11.85;;;4.45;;
57385;SDS011;71829;56.976;21.958;2023-09-19T02:47:13;10.40;;;4.35;;
57385;SDS011;71829;56.976;21.958;2023-09-19T02:49:41;9.23;;;4.55;;
57385;SDS011;71829;56.976;21.958;2023-09-19T02:52:10;11.57;;;5.22;;
57385;SDS011;71829;56.976;21.958;2023-09-19T02:54:38;11.88;;;4.88;;
57385;SDS011;71829;56.976;21.958;2023-09-19T02:57:05;11.98;;;4.82;;
57385;SDS011;71829;56.976;21.958;2023-09-19T02:59:33;10.80;;;4.82;;
57385;SDS011;71829;56.976;21.958;2023-09-19T03:02:03;10.10;;;4.80;;
57385;SDS011;71829;56.976;21.958;2023-09-19T03:04:31;11.20;;;5.38;;
57385;SDS011;71829;56.976;21.958;2023-09-19T03:07:01;11.15;;;4.70;;
57385;SDS011;71829;56.976;21.958;2023-09-19T03:09:30;12.13;;;4.57;;
57385;SDS011;71829;56.976;21.958;2023-09-19T03:11:58;10.88;;;5.10;;
57385;SDS011;71829;56.976;21.958;2023-09-19T03:14:33;11.43;;;5.20;;
57385;SDS011;71829;56.976;21.958;2023-09-19T03:17:02;9.10;;;4.43;;
57385;SDS011;71829;56.976;21.958;2023-09-19T03:19:32;10.80;;;4.95;;
57385;SDS011;71829;56.976;21.958;2023-09-19T03:22:00;9.93;;;4.57;;
57385;SDS011;71829;56.976;21.958;2023-09-19T03:24:29;13.10;;;5.28;;
57385;SDS011;71829;56.976;21.958;2023-09-19T03:26:58;12.02;;;5.45;;
57385;SDS011;71829;56.976;21.958;2023-09-19T03:29:25;10.80;;;5.10;;
57385;SDS011;71829;56.976;21.958;2023-09-19T03:31:53;12.45;;;5.35;;
57385;SDS011;71829;56.976;21.958;2023-09-19T03:34:21;10.60;;;4.55;;
57385;SDS011;71829;56.976;21.958;2023-09-19T03:36:49;10.32;;;5.22;;
57385;SDS011;71829;56.976;21.958;2023-09-19T03:39:17;13.18;;;5.40;;
57385;SDS011;71829;56.976;21.958;2023-09-19T03:41:44;11.10;;;5.45;;
57385;SDS011;71829;56.976;21.958;2023-09-19T03:44:12;10.10;;;4.85;;
57385;SDS011;71829;56.976;21.958;2023-09-19T03:46:40;12.70;;;5.53;;
57385;SDS011;71829;56.976;21.958;2023-09-19T03:49:07;9.95;;;5.32;;
57385;SDS011;71829;56.976;21.958;2023-09-19T03:51:35;10.90;;;4.57;;
57385;SDS011;71829;56.976;21.958;2023-09-19T03:54:04;11.18;;;5.45;;
57385;SDS011;71829;56.976;21.958;2023-09-19T03:56:31;10.90;;;4.75;;
57385;SDS011;71829;56.976;21.958;2023-09-19T03:58:59;13.02;;;6.00;;
57385;SDS011;71829;56.976;21.958;2023-09-19T04:01:26;11.82;;;5.72;;
57385;SDS011;71829;56.976;21.958;2023-09-19T04:03:55;12.07;;;6.07;;
57385;SDS011;71829;56.976;21.958;2023-09-19T04:06:23;11.73;;;6.05;;
57385;SDS011;71829;56.976;21.958;2023-09-19T04:08:50;13.38;;;5.80;;
57385;SDS011;71829;56.976;21.958;2023-09-19T04:11:18;11.68;;;5.40;;
57385;SDS011;71829;56.976;21.958;2023-09-19T04:13:46;10.35;;;5.35;;
57385;SDS011;71829;56.976;21.958;2023-09-19T04:16:13;14.38;;;5.43;;
57385;SDS011;71829;56.976;21.958;2023-09-19T04:18:41;14.60;;;6.07;;
57385;SDS011;71829;56.976;21.958;2023-09-19T04:21:08;10.32;;;4.90;;
57385;SDS011;71829;56.976;21.958;2023-09-19T04:23:36;10.88;;;6.18;;
57385;SDS011;71829;56.976;21.958;2023-09-19T04:26:04;12.63;;;5.80;;
57385;SDS011;71829;56.976;21.958;2023-09-19T04:28:31;12.18;;;6.05;;
57385;SDS011;71829;56.976;21.958;2023-09-19T04:31:00;14.73;;;5.95;;
57385;SDS011;71829;56.976;21.958;2023-09-19T04:33:28;13.25;;;5.95;;
57385;SDS011;71829;56.976;21.958;2023-09-19T04:35:55;16.15;;;8.35;;
57385;SDS011;71829;56.976;21.958;2023-09-19T04:38:30;12.52;;;6.50;;
57385;SDS011;71829;56.976;21.958;2023-09-19T04:40:58;11.07;;;5.28;;
57385;SDS011;71829;56.976;21.958;2023-09-19T04:43:26;12.38;;;6.07;;
57385;SDS011;71829;56.976;21.958;2023-09-19T04:45:55;13.48;;;5.70;;
57385;SDS011;71829;56.976;21.958;2023-09-19T04:48:22;11.93;;;6.30;;
57385;SDS011;71829;56.976;21.958;2023-09-19T04:50:55;12.10;;;5.70;;
57385;SDS011;71829;56.976;21.958;2023-09-19T04:53:22;14.07;;;5.78;;
57385;SDS011;71829;56.976;21.958;2023-09-19T04:55:50;11.32;;;5.35;;
57385;SDS011;71829;56.976;21.958;2023-09-19T04:58:22;11.48;;;6.03;;
57385;SDS011;71829;56.976;21.958;2023-09-19T05:00:50;13.52;;;6.47;;
57385;SDS011;71829;56.976;21.958;2023-09-19T05:03:18;27.00;;;23.00;;
57385;SDS011;71829;56.976;21.958;2023-09-19T05:05:46;14.02;;;7.28;;
57385;SDS011;71829;56.976;21.958;2023-09-19T05:08:14;16.10;;;7.13;;
57385;SDS011;71829;56.976;21.958;2023-09-19T05:10:42;18.88;;;10.05;;
57385;SDS011;71829;56.976;21.958;2023-09-19T05:13:09;14.02;;;7.93;;
57385;SDS011;71829;56.976;21.958;2023-09-19T05:15:38;14.05;;;9.18;;
57385;SDS011;71829;56.976;21.958;2023-09-19T05:18:06;14.63;;;8.23;;
57385;SDS011;71829;56.976;21.958;2023-09-19T05:20:34;15.38;;;7.30;;
57385;SDS011;71829;56.976;21.958;2023-09-19T05:23:05;14.65;;;7.90;;
57385;SDS011;71829;56.976;21.958;2023-09-19T05:25:39;15.45;;;7.80;;
57385;SDS011;71829;56.976;21.958;2023-09-19T05:28:07;15.60;;;9.43;;
57385;SDS011;71829;56.976;21.958;2023-09-19T05:30:35;15.63;;;7.45;;
57385;SDS011;71829;56.976;21.958;2023-09-19T05:33:03;13.65;;;6.50;;
57385;SDS011;71829;56.976;21.958;2023-09-19T05:35:31;15.13;;;7.40;;
57385;SDS011;71829;56.976;21.958;2023-09-19T05:38:02;14.25;;;7.40;;
57385;SDS011;71829;56.976;21.958;2023-09-19T05:40:32;17.02;;;6.95;;
57385;SDS011;71829;56.976;21.958;2023-09-19T05:42:59;14.75;;;7.32;;
57385;SDS011;71829;56.976;21.958;2023-09-19T05:45:28;16.88;;;7.20;;
57385;SDS011;71829;56.976;21.958;2023-09-19T05:47:55;14.80;;;7.65;;
57385;SDS011;71829;56.976;21.958;2023-09-19T05:50:30;16.35;;;8.63;;
57385;SDS011;71829;56.976;21.958;2023-09-19T05:52:58;13.77;;;6.63;;
57385;SDS011;71829;56.976;21.958;2023-09-19T05:55:26;16.52;;;8.32;;
57385;SDS011;71829;56.976;21.958;2023-09-19T05:57:55;20.02;;;8.63;;
57385;SDS011;71829;56.976;21.958;2023-09-19T06:00:22;14.95;;;7.53;;
57385;SDS011;71829;56.976;21.958;2023-09-19T06:02:53;16.13;;;8.40;;
57385;SDS011;71829;56.976;21.958;2023-09-19T06:05:21;14.80;;;7.18;;
57385;SDS011;71829;56.976;21.958;2023-09-19T06:07:50;14.27;;;7.93;;
57385;SDS011;71829;56.976;21.958;2023-09-19T06:10:18;13.60;;;7.28;;
57385;SDS011;71829;56.976;21.958;2023-09-19T06:12:49;18.65;;;8.30;;
57385;SDS011;71829;56.976;21.958;2023-09-19T06:15:17;16.38;;;8.45;;
57385;SDS011;71829;56.976;21.958;2023-09-19T06:17:52;15.80;;;7.47;;
57385;SDS011;71829;56.976;21.958;2023-09-19T06:20:25;16.98;;;7.35;;
57385;SDS011;71829;56.976;21.958;2023-09-19T06:22:53;15.80;;;8.50;;
57385;SDS011;71829;56.976;21.958;2023-09-19T06:25:21;15.02;;;6.95;;
57385;SDS011;71829;56.976;21.958;2023-09-19T06:27:50;13.40;;;6.47;;
57385;SDS011;71829;56.976;21.958;2023-09-19T06:30:22;16.48;;;7.43;;
57385;SDS011;71829;56.976;21.958;2023-09-19T06:32:58;12.90;;;5.78;;
57385;SDS011;71829;56.976;21.958;2023-09-19T06:35:26;15.02;;;7.00;;
57385;SDS011;71829;56.976;21.958;2023-09-19T06:37:54;12.48;;;6.53;;
57385;SDS011;71829;56.976;21.958;2023-09-19T06:40:34;14.68;;;6.50;;
57385;SDS011;71829;56.976;21.958;2023-09-19T06:43:02;18.63;;;8.07;;
57385;SDS011;71829;56.976;21.958;2023-09-19T06:45:30;13.77;;;6.38;;
57385;SDS011;71829;56.976;21.958;2023-09-19T06:47:58;18.02;;;9.82;;
57385;SDS011;71829;56.976;21.958;2023-09-19T06:50:27;13.32;;;7.07;;
57385;SDS011;71829;56.976;21.958;2023-09-19T06:52:54;15.32;;;7.97;;
57385;SDS011;71829;56.976;21.958;2023-09-19T06:55:24;14.80;;;7.40;;
57385;SDS011;71829;56.976;21.958;2023-09-19T06:57:55;14.57;;;6.88;;
57385;SDS011;71829;56.976;21.958;2023-09-19T07:00:22;15.57;;;7.38;;
57385;SDS011;71829;56.976;21.958;2023-09-19T07:03:01;15.60;;;7.28;;
57385;SDS011;71829;56.976;21.958;2023-09-19T07:05:31;36.90;;;30.10;;
57385;SDS011;71829;56.976;21.958;2023-09-19T07:08:01;15.15;;;8.15;;
57385;SDS011;71829;56.976;21.958;2023-09-19T07:10:32;14.35;;;7.40;;
57385;SDS011;71829;56.976;21.958;2023-09-19T07:13:00;17.08;;;8.32;;
57385;SDS011;71829;56.976;21.958;2023-09-19T07:15:29;16.15;;;8.00;;
57385;SDS011;71829;56.976;21.958;2023-09-19T07:17:57;21.25;;;8.85;;
57385;SDS011;71829;56.976;21.958;2023-09-19T07:22:58;15.23;;;7.38;;
57385;SDS011;71829;56.976;21.958;2023-09-19T07:25:29;15.50;;;8.02;;
57385;SDS011;71829;56.976;21.958;2023-09-19T07:27:58;17.02;;;8.60;;
57385;SDS011;71829;56.976;21.958;2023-09-19T07:30:28;16.48;;;7.30;;
57385;SDS011;71829;56.976;21.958;2023-09-19T07:32:57;15.63;;;7.20;;
57385;SDS011;71829;56.976;21.958;2023-09-19T07:35:24;16.05;;;7.95;;
57385;SDS011;71829;56.976;21.958;2023-09-19T07:37:52;15.90;;;7.85;;
57385;SDS011;71829;56.976;21.958;2023-09-19T07:40:20;17.33;;;11.20;;
57385;SDS011;71829;56.976;21.958;2023-09-19T07:42:47;14.10;;;6.75;;
57385;SDS011;71829;56.976;21.958;2023-09-19T07:45:18;13.45;;;6.32;;
57385;SDS011;71829;56.976;21.958;2023-09-19T07:50:13;17.23;;;8.13;;
57385;SDS011;71829;56.976;21.958;2023-09-19T07:52:43;15.77;;;8.60;;
57385;SDS011;71829;56.976;21.958;2023-09-19T07:55:11;17.25;;;10.00;;
57385;SDS011;71829;56.976;21.958;2023-09-19T07:57:43;16.42;;;9.75;;
57385;SDS011;71829;56.976;21.958;2023-09-19T08:02:41;14.30;;;7.68;;
57385;SDS011;71829;56.976;21.958;2023-09-19T08:05:10;18.67;;;8.15;;
57385;SDS011;71829;56.976;21.958;2023-09-19T08:07:39;14.57;;;7.95;;
57385;SDS011;71829;56.976;21.958;2023-09-19T08:10:07;16.08;;;10.23;;
57385;SDS011;71829;56.976;21.958;2023-09-19T08:12:39;17.85;;;9.82;;
57385;SDS011;71829;56.976;21.958;2023-09-19T08:15:17;16.38;;;9.52;;
57385;SDS011;71829;56.976;21.958;2023-09-19T08:17:48;20.83;;;16.27;;
57385;SDS011;71829;56.976;21.958;2023-09-19T08:20:16;17.52;;;10.75;;
57385;SDS011;71829;56.976;21.958;2023-09-19T08:22:54;13.43;;;7.68;;
57385;SDS011;71829;56.976;21.958;2023-09-19T08:25:22;14.50;;;7.22;;
57385;SDS011;71829;56.976;21.958;2023-09-19T08:27:51;14.57;;;8.27;;
57385;SDS011;71829;56.976;21.958;2023-09-19T08:30:20;15.32;;;7.90;;
57385;SDS011;71829;56.976;21.958;2023-09-19T08:32:51;15.45;;;7.13;;
57385;SDS011;71829;56.976;21.958;2023-09-19T08:35:19;14.30;;;7.72;;
57385;SDS011;71829;56.976;21.958;2023-09-19T08:37:46;14.82;;;6.57;;
57385;SDS011;71829;56.976;21.958;2023-09-19T08:40:16;13.90;;;7.47;;
57385;SDS011;71829;56.976;21.958;2023-09-19T08:42:52;12.55;;;6.60;;
57385;SDS011;71829;56.976;21.958;2023-09-19T08:45:21;17.95;;;8.10;;
57385;SDS011;71829;56.976;21.958;2023-09-19T08:50:27;13.18;;;7.03;;
57385;SDS011;71829;56.976;21.958;2023-09-19T08:52:55;13.48;;;6.10;;
57385;SDS011;71829;56.976;21.958;2023-09-19T08:55:26;11.90;;;6.72;;
57385;SDS011;71829;56.976;21.958;2023-09-19T08:58:02;14.32;;;6.78;;
57385;SDS011;71829;56.976;21.958;2023-09-19T09:00:32;11.55;;;6.60;;
57385;SDS011;71829;56.976;21.958;2023-09-19T09:02:59;12.40;;;6.57;;
57385;SDS011;71829;56.976;21.958;2023-09-19T09:05:28;15.07;;;7.40;;
57385;SDS011;71829;56.976;21.958;2023-09-19T09:07:57;17.60;;;7.32;;
57385;SDS011;71829;56.976;21.958;2023-09-19T09:10:26;14.20;;;7.68;;
57385;SDS011;71829;56.976;21.958;2023-09-19T09:12:54;17.40;;;8.57;;
57385;SDS011;71829;56.976;21.958;2023-09-19T09:15:22;15.38;;;8.68;;
57385;SDS011;71829;56.976;21.958;2023-09-19T09:17:50;18.45;;;8.18;;
57385;SDS011;71829;56.976;21.958;2023-09-19T09:20:22;18.48;;;7.57;;
57385;SDS011;71829;56.976;21.958;2023-09-19T09:22:56;16.88;;;8.75;;
57385;SDS011;71829;56.976;21.958;2023-09-19T09:28:26;15.15;;;7.75;;
57385;SDS011;71829;56.976;21.958;2023-09-19T09:30:55;25.40;;;10.00;;
57385;SDS011;71829;56.976;21.958;2023-09-19T09:33:22;17.23;;;9.90;;
57385;SDS011;71829;56.976;21.958;2023-09-19T09:35:53;18.75;;;11.52;;
57385;SDS011;71829;56.976;21.958;2023-09-19T09:38:24;16.20;;;9.38;;
57385;SDS011;71829;56.976;21.958;2023-09-19T09:40:59;16.95;;;10.18;;
57385;SDS011;71829;56.976;21.958;2023-09-19T09:43:37;18.13;;;9.95;;
57385;SDS011;71829;56.976;21.958;2023-09-19T09:46:14;17.30;;;9.93;;
57385;SDS011;71829;56.976;21.958;2023-09-19T09:49:03;18.27;;;10.23;;
57385;SDS011;71829;56.976;21.958;2023-09-19T09:51:50;19.33;;;10.10;;
57385;SDS011;71829;56.976;21.958;2023-09-19T09:54:35;18.65;;;9.82;;
57385;SDS011;71829;56.976;21.958;2023-09-19T09:57:09;19.95;;;10.98;;
57385;SDS011;71829;56.976;21.958;2023-09-19T10:00:02;18.63;;;9.98;;
57385;SDS011;71829;56.976;21.958;2023-09-19T10:02:56;20.33;;;11.82;;
57385;SDS011;71829;56.976;21.958;2023-09-19T10:05:26;18.73;;;11.75;;
57385;SDS011;71829;56.976;21.958;2023-09-19T10:08:11;17.33;;;10.10;;
57385;SDS011;71829;56.976;21.958;2023-09-19T10:10:39;18.52;;;9.20;;
57385;SDS011;71829;56.976;21.958;2023-09-19T10:13:23;18.23;;;9.93;;
57385;SDS011;71829;56.976;21.958;2023-09-19T10:16:03;17.98;;;10.32;;
57385;SDS011;71829;56.976;21.958;2023-09-19T10:18:36;18.13;;;10.07;;
57385;SDS011;71829;56.976;21.958;2023-09-19T10:21:06;18.77;;;10.40;;
57385;SDS011;71829;56.976;21.958;2023-09-19T10:23:35;18.08;;;11.07;;
57385;SDS011;71829;56.976;21.958;2023-09-19T10:26:04;18.25;;;10.27;;
57385;SDS011;71829;56.976;21.958;2023-09-19T10:28:32;21.80;;;10.93;;
57385;SDS011;71829;56.976;21.958;2023-09-19T10:31:02;22.45;;;11.88;;
57385;SDS011;71829;56.976;21.958;2023-09-19T10:33:32;19.60;;;10.85;;
57385;SDS011;71829;56.976;21.958;2023-09-19T10:36:04;20.35;;;11.05;;
57385;SDS011;71829;56.976;21.958;2023-09-19T10:38:32;19.52;;;10.02;;
57385;SDS011;71829;56.976;21.958;2023-09-19T10:41:02;18.33;;;9.77;;
57385;SDS011;71829;56.976;21.958;2023-09-19T10:43:31;20.33;;;11.63;;
57385;SDS011;71829;56.976;21.958;2023-09-19T10:46:03;21.35;;;9.48;;
57385;SDS011;71829;56.976;21.958;2023-09-19T10:48:32;16.67;;;10.98;;
57385;SDS011;71829;56.976;21.958;2023-09-19T10:51:10;18.40;;;10.52;;
57385;SDS011;71829;56.976;21.958;2023-09-19T10:53:50;17.08;;;9.70;;
57385;SDS011;71829;56.976;21.958;2023-09-19T10:56:42;19.25;;;8.32;;
57385;SDS011;71829;56.976;21.958;2023-09-19T10:59:12;17.60;;;9.43;;
57385;SDS011;71829;56.976;21.958;2023-09-19T11:01:45;18.67;;;8.75;;
57385;SDS011;71829;56.976;21.958;2023-09-19T11:07:07;15.48;;;7.97;;
57385;SDS011;71829;56.976;21.958;2023-09-19T11:09:51;15.02;;;8.10;;
57385;SDS011;71829;56.976;21.958;2023-09-19T11:15:02;16.30;;;7.97;;
57385;SDS011;71829;56.976;21.958;2023-09-19T11:17:41;15.30;;;7.97;;
57385;SDS011;71829;56.976;21.958;2023-09-19T11:30:30;13.00;;;6.60;;
57385;SDS011;71829;56.976;21.958;2023-09-19T11:36:03;13.00;;;6.78;;
57385;SDS011;71829;56.976;21.958;2023-09-19T11:43:49;11.93;;;5.00;;
57385;SDS011;71829;56.976;21.958;2023-09-19T11:46:22;9.68;;;4.65;;
57385;SDS011;71829;56.976;21.958;2023-09-19T11:48:50;12.57;;;5.05;;
57385;SDS011;71829;56.976;21.958;2023-09-19T11:51:22;9.77;;;4.47;;
57385;SDS011;71829;56.976;21.958;2023-09-19T11:53:54;11.65;;;4.93;;
57385;SDS011;71829;56.976;21.958;2023-09-19T11:56:22;11.38;;;4.53;;
57385;SDS011;71829;56.976;21.958;2023-09-19T11:58:53;9.27;;;3.88;;
57385;SDS011;71829;56.976;21.958;2023-09-19T12:01:31;8.55;;;3.25;;
57385;SDS011;71829;56.976;21.958;2023-09-19T12:04:00;8.23;;;2.78;;
57385;SDS011;71829;56.976;21.958;2023-09-19T12:06:29;11.30;;;3.22;;
57385;SDS011;71829;56.976;21.958;2023-09-19T12:08:59;10.82;;;3.47;;
57385;SDS011;71829;56.976;21.958;2023-09-19T12:11:28;8.32;;;2.95;;
57385;SDS011;71829;56.976;21.958;2023-09-19T12:14:01;7.47;;;3.00;;
57385;SDS011;71829;56.976;21.958;2023-09-19T12:16:29;7.80;;;2.70;;
57385;SDS011;71829;56.976;21.958;2023-09-19T12:18:57;8.38;;;2.20;;
57385;SDS011;71829;56.976;21.958;2023-09-19T12:21:26;8.60;;;3.22;;
57385;SDS011;71829;56.976;21.958;2023-09-19T12:26:43;9.18;;;2.92;;
57385;SDS011;71829;56.976;21.958;2023-09-19T12:29:17;7.10;;;2.35;;
57385;SDS011;71829;56.976;21.958;2023-09-19T12:31:48;7.47;;;2.45;;
57385;SDS011;71829;56.976;21.958;2023-09-19T12:34:27;7.72;;;2.53;;
57385;SDS011;71829;56.976;21.958;2023-09-19T12:37:05;7.68;;;2.65;;
57385;SDS011;71829;56.976;21.958;2023-09-19T12:39:38;9.10;;;2.80;;
57385;SDS011;71829;56.976;21.958;2023-09-19T12:42:10;6.90;;;2.08;;
57385;SDS011;71829;56.976;21.958;2023-09-19T12:45:02;8.40;;;2.40;;
57385;SDS011;71829;56.976;21.958;2023-09-19T12:47:28;8.68;;;2.53;;
57385;SDS011;71829;56.976;21.958;2023-09-19T12:50:06;7.22;;;2.58;;
57385;SDS011;71829;56.976;21.958;2023-09-19T12:52:35;7.13;;;2.35;;
57385;SDS011;71829;56.976;21.958;2023-09-19T12:55:03;8.05;;;2.92;;
57385;SDS011;71829;56.976;21.958;2023-09-19T12:57:33;8.60;;;3.35;;
57385;SDS011;71829;56.976;21.958;2023-09-19T13:00:02;9.77;;;3.03;;
57385;SDS011;71829;56.976;21.958;2023-09-19T13:02:32;8.98;;;3.42;;
57385;SDS011;71829;56.976;21.958;2023-09-19T13:05:00;9.23;;;3.58;;
57385;SDS011;71829;56.976;21.958;2023-09-19T13:07:40;14.10;;;4.63;;
57385;SDS011;71829;56.976;21.958;2023-09-19T13:10:12;9.85;;;4.95;;
57385;SDS011;71829;56.976;21.958;2023-09-19T13:12:43;13.13;;;5.40;;
57385;SDS011;71829;56.976;21.958;2023-09-19T13:15:14;13.27;;;5.07;;
57385;SDS011;71829;56.976;21.958;2023-09-19T13:17:47;10.18;;;4.43;;
57385;SDS011;71829;56.976;21.958;2023-09-19T13:22:59;9.52;;;3.90;;
57385;SDS011;71829;56.976;21.958;2023-09-19T13:25:33;9.38;;;5.28;;
57385;SDS011;71829;56.976;21.958;2023-09-19T13:28:01;10.20;;;4.97;;
57385;SDS011;71829;56.976;21.958;2023-09-19T13:30:32;8.63;;;3.63;;
57385;SDS011;71829;56.976;21.958;2023-09-19T13:33:09;9.13;;;3.10;;
57385;SDS011;71829;56.976;21.958;2023-09-19T13:35:40;8.35;;;2.88;;
57385;SDS011;71829;56.976;21.958;2023-09-19T13:38:07;9.63;;;3.30;;
57385;SDS011;71829;56.976;21.958;2023-09-19T13:40:39;7.68;;;2.40;;
57385;SDS011;71829;56.976;21.958;2023-09-19T13:43:08;7.97;;;3.08;;
57385;SDS011;71829;56.976;21.958;2023-09-19T13:45:40;7.13;;;2.17;;
57385;SDS011;71829;56.976;21.958;2023-09-19T13:48:09;9.48;;;2.17;;
57385;SDS011;71829;56.976;21.958;2023-09-19T13:50:40;11.13;;;3.15;;
57385;SDS011;71829;56.976;21.958;2023-09-19T13:53:10;7.53;;;1.92;;
57385;SDS011;71829;56.976;21.958;2023-09-19T13:55:38;6.68;;;2.22;;
57385;SDS011;71829;56.976;21.958;2023-09-19T13:58:06;6.28;;;2.17;;
57385;SDS011;71829;56.976;21.958;2023-09-19T14:00:37;6.13;;;1.83;;
57385;SDS011;71829;56.976;21.958;2023-09-19T14:03:05;5.05;;;1.50;;
57385;SDS011;71829;56.976;21.958;2023-09-19T14:05:33;6.03;;;1.63;;
57385;SDS011;71829;56.976;21.958;2023-09-19T14:08:00;6.80;;;1.02;;
57385;SDS011;71829;56.976;21.958;2023-09-19T14:10:32;5.32;;;0.73;;
57385;SDS011;71829;56.976;21.958;2023-09-19T14:12:59;10.07;;;4.03;;
57385;SDS011;71829;56.976;21.958;2023-09-19T14:15:27;10.60;;;3.83;;
57385;SDS011;71829;56.976;21.958;2023-09-19T14:17:58;7.95;;;2.42;;
57385;SDS011;71829;56.976;21.958;2023-09-19T14:20:27;8.93;;;2.67;;
57385;SDS011;71829;56.976;21.958;2023-09-19T14:22:56;9.15;;;2.55;;
57385;SDS011;71829;56.976;21.958;2023-09-19T14:25:28;13.75;;;5.97;;
57385;SDS011;71829;56.976;21.958;2023-09-19T14:27:57;9.10;;;3.60;;
57385;SDS011;71829;56.976;21.958;2023-09-19T14:30:24;4.43;;;0.70;;
57385;SDS011;71829;56.976;21.958;2023-09-19T14:32:52;5.40;;;0.70;;
57385;SDS011;71829;56.976;21.958;2023-09-19T14:35:20;7.72;;;1.10;;
57385;SDS011;71829;56.976;21.958;2023-09-19T14:37:49;4.93;;;0.85;;
57385;SDS011;71829;56.976;21.958;2023-09-19T14:40:35;3.83;;;1.00;;
57385;SDS011;71829;56.976;21.958;2023-09-19T14:43:03;8.25;;;2.33;;
57385;SDS011;71829;56.976;21.958;2023-09-19T14:45:31;9.48;;;3.90;;
57385;SDS011;71829;56.976;21.958;2023-09-19T14:47:59;6.68;;;1.92;;
57385;SDS011;71829;56.976;21.958;2023-09-19T14:50:26;7.78;;;1.95;;
57385;SDS011;71829;56.976;21.958;2023-09-19T14:52:56;8.43;;;1.67;;
57385;SDS011;71829;56.976;21.958;2023-09-19T14:55:24;9.00;;;2.55;;
57385;SDS011;71829;56.976;21.958;2023-09-19T14:57:54;7.10;;;1.25;;
57385;SDS011;71829;56.976;21.958;2023-09-19T15:00:23;5.75;;;1.38;;
57385;SDS011;71829;56.976;21.958;2023-09-19T15:02:50;6.60;;;1.33;;
57385;SDS011;71829;56.976;21.958;2023-09-19T15:05:19;6.15;;;1.65;;
57385;SDS011;71829;56.976;21.958;2023-09-19T15:07:47;6.93;;;1.17;;
57385;SDS011;71829;56.976;21.958;2023-09-19T15:10:15;6.68;;;1.42;;
57385;SDS011;71829;56.976;21.958;2023-09-19T15:12:43;6.18;;;1.25;;
57385;SDS011;71829;56.976;21.958;2023-09-19T15:15:10;5.90;;;1.38;;
57385;SDS011;71829;56.976;21.958;2023-09-19T15:17:39;5.13;;;1.40;;
57385;SDS011;71829;56.976;21.958;2023-09-19T15:20:07;6.93;;;0.70;;
57385;SDS011;71829;56.976;21.958;2023-09-19T15:22:35;5.97;;;1.20;;
57385;SDS011;71829;56.976;21.958;2023-09-19T15:25:03;6.88;;;1.42;;
57385;SDS011;71829;56.976;21.958;2023-09-19T15:27:32;7.00;;;2.00;;
57385;SDS011;71829;56.976;21.958;2023-09-19T15:30:00;4.95;;;1.70;;
57385;SDS011;71829;56.976;21.958;2023-09-19T15:32:29;5.68;;;1.60;;
57385;SDS011;71829;56.976;21.958;2023-09-19T15:34:57;4.53;;;0.73;;
57385;SDS011;71829;56.976;21.958;2023-09-19T15:37:24;7.05;;;1.80;;
57385;SDS011;71829;56.976;21.958;2023-09-19T15:39:53;5.18;;;1.73;;
57385;SDS011;71829;56.976;21.958;2023-09-19T15:42:20;4.63;;;1.00;;
57385;SDS011;71829;56.976;21.958;2023-09-19T15:44:48;6.35;;;1.20;;
57385;SDS011;71829;56.976;21.958;2023-09-19T15:47:17;5.43;;;0.80;;